sensor_id;sensor_type;location;lat;lon;timestamp;P1;P2;P0
62547;PMS7003;48602;45.192;5.722;2023-04-08T00:01:51;7.00;5.00;4.00
62547;PMS7003;48602;45.192;5.722;2023-04-08T00:04:18;5.00;5.00;4.33
62547;PMS7003;48602;45.192;5.722;2023-04-08T00:06:43;6.00;6.00;5.00
62547;PMS7003;48602;45.192;5.722;2023-04-08T00:09:09;8.00;5.00;4.00
62547;PMS7003;48602;45.192;5.722;2023-04-08T00:11:35;7.67;7.67;7.00
62547;PMS7003;48602;45.192;5.722;2023-04-08T00:14:02;8.00;7.00;5.67
62547;PMS7003;48602;45.192;5.722;2023-04-08T00:16:28;8.67;8.00;5.00
62547;PMS7003;48602;45.192;5.722;2023-04-08T00:18:54;7.00;7.00;4.33
62547;PMS7003;48602;45.192;5.722;2023-04-08T00:21:19;5.00;5.00;4.00
62547;PMS7003;48602;45.192;5.722;2023-04-08T00:23:45;5.67;4.00;4.00
62547;PMS7003;48602;45.192;5.722;2023-04-08T00:26:11;5.67;5.67;4.33
62547;PMS7003;48602;45.192;5.722;2023-04-08T00:28:36;5.67;5.67;5.33
62547;PMS7003;48602;45.192;5.722;2023-04-08T00:31:02;8.33;7.33;6.33
62547;PMS7003;48602;45.192;5.722;2023-04-08T00:33:27;6.00;4.33;4.00
62547;PMS7003;48602;45.192;5.722;2023-04-08T00:35:53;6.00;4.33;4.00
62547;PMS7003;48602;45.192;5.722;2023-04-08T00:38:18;8.33;7.33;6.67
62547;PMS7003;48602;45.192;5.722;2023-04-08T00:40:44;5.33;5.33;5.33
62547;PMS7003;48602;45.192;5.722;2023-04-08T00:43:09;6.67;5.33;4.33
62547;PMS7003;48602;45.192;5.722;2023-04-08T00:45:35;8.00;7.00;4.67
62547;PMS7003;48602;45.192;5.722;2023-04-08T00:48:03;9.00;6.67;5.33
62547;PMS7003;48602;45.192;5.722;2023-04-08T00:50:29;4.33;4.33;4.33
62547;PMS7003;48602;45.192;5.722;2023-04-08T00:52:55;7.33;5.33;5.00
62547;PMS7003;48602;45.192;5.722;2023-04-08T00:55:20;5.00;4.67;4.00
62547;PMS7003;48602;45.192;5.722;2023-04-08T00:57:45;5.67;4.33;4.00
62547;PMS7003;48602;45.192;5.722;2023-04-08T01:00:12;5.33;4.67;4.00
62547;PMS7003;48602;45.192;5.722;2023-04-08T01:02:44;7.00;6.33;5.00
62547;PMS7003;48602;45.192;5.722;2023-04-08T01:05:12;5.67;5.67;4.33
62547;PMS7003;48602;45.192;5.722;2023-04-08T01:07:45;7.67;7.33;5.33
62547;PMS7003;48602;45.192;5.722;2023-04-08T01:12:46;8.67;7.67;6.00
62547;PMS7003;48602;45.192;5.722;2023-04-08T01:15:23;9.00;7.00;4.33
62547;PMS7003;48602;45.192;5.722;2023-04-08T01:17:52;5.33;5.33;4.67
62547;PMS7003;48602;45.192;5.722;2023-04-08T01:20:19;7.00;7.00;5.33
62547;PMS7003;48602;45.192;5.722;2023-04-08T01:25:55;7.00;7.00;5.33
62547;PMS7003;48602;45.192;5.722;2023-04-08T01:28:21;7.33;6.33;5.00
62547;PMS7003;48602;45.192;5.722;2023-04-08T01:30:49;9.00;8.00;5.67
62547;PMS7003;48602;45.192;5.722;2023-04-08T01:33:16;7.00;7.00;5.33
62547;PMS7003;48602;45.192;5.722;2023-04-08T01:35:43;9.00;8.67;8.00
62547;PMS7003;48602;45.192;5.722;2023-04-08T01:38:10;6.67;6.67;5.33
62547;PMS7003;48602;45.192;5.722;2023-04-08T01:40:43;6.00;6.00;5.00
62547;PMS7003;48602;45.192;5.722;2023-04-08T01:43:12;6.00;6.00;5.67
62547;PMS7003;48602;45.192;5.722;2023-04-08T01:45:40;7.33;7.33;5.33
62547;PMS7003;48602;45.192;5.722;2023-04-08T01:48:09;8.00;7.00;7.00
62547;PMS7003;48602;45.192;5.722;2023-04-08T01:50:37;8.67;7.00;6.00
62547;PMS7003;48602;45.192;5.722;2023-04-08T01:53:05;6.67;6.00;6.00
62547;PMS7003;48602;45.192;5.722;2023-04-08T01:55:34;5.00;3.33;3.00
62547;PMS7003;48602;45.192;5.722;2023-04-08T01:58:01;8.00;7.33;6.00
62547;PMS7003;48602;45.192;5.722;2023-04-08T02:00:29;7.00;7.00;6.00
62547;PMS7003;48602;45.192;5.722;2023-04-08T02:02:56;7.67;6.00;6.00
62547;PMS7003;48602;45.192;5.722;2023-04-08T02:05:22;10.00;8.00;7.00
62547;PMS7003;48602;45.192;5.722;2023-04-08T02:07:47;8.00;8.00;7.00
62547;PMS7003;48602;45.192;5.722;2023-04-08T02:10:13;5.67;5.67;4.67
62547;PMS7003;48602;45.192;5.722;2023-04-08T02:12:39;7.33;7.33;5.67
62547;PMS7003;48602;45.192;5.722;2023-04-08T02:15:05;4.33;4.33;4.00
62547;PMS7003;48602;45.192;5.722;2023-04-08T02:17:38;8.00;7.00;6.00
62547;PMS7003;48602;45.192;5.722;2023-04-08T02:20:05;10.00;8.00;7.00
62547;PMS7003;48602;45.192;5.722;2023-04-08T02:22:42;8.00;7.00;6.00
62547;PMS7003;48602;45.192;5.722;2023-04-08T02:25:29;11.67;9.00;8.33
62547;PMS7003;48602;45.192;5.722;2023-04-08T02:27:56;9.33;9.33;7.00
62547;PMS7003;48602;45.192;5.722;2023-04-08T02:30:24;14.67;14.00;11.67
62547;PMS7003;48602;45.192;5.722;2023-04-08T02:32:52;22.67;19.67;16.33
62547;PMS7003;48602;45.192;5.722;2023-04-08T02:35:20;12.00;10.33;9.00
62547;PMS7003;48602;45.192;5.722;2023-04-08T02:37:45;14.00;13.33;11.67
62547;PMS7003;48602;45.192;5.722;2023-04-08T02:40:24;13.00;10.67;8.00
62547;PMS7003;48602;45.192;5.722;2023-04-08T02:42:50;8.33;8.00;8.00
62547;PMS7003;48602;45.192;5.722;2023-04-08T02:45:17;8.00;6.67;6.00
62547;PMS7003;48602;45.192;5.722;2023-04-08T02:47:42;10.00;6.33;4.67
62547;PMS7003;48602;45.192;5.722;2023-04-08T02:50:08;9.33;8.33;6.00
62547;PMS7003;48602;45.192;5.722;2023-04-08T02:52:34;9.00;8.67;7.33
62547;PMS7003;48602;45.192;5.722;2023-04-08T02:55:00;7.67;7.67;7.00
62547;PMS7003;48602;45.192;5.722;2023-04-08T02:57:25;8.67;8.67;7.67
62547;PMS7003;48602;45.192;5.722;2023-04-08T02:59:50;9.33;9.00;8.00
62547;PMS7003;48602;45.192;5.722;2023-04-08T03:02:16;15.00;13.00;9.00
62547;PMS7003;48602;45.192;5.722;2023-04-08T03:04:41;9.00;9.00;8.00
62547;PMS7003;48602;45.192;5.722;2023-04-08T03:07:06;11.67;9.00;8.00
62547;PMS7003;48602;45.192;5.722;2023-04-08T03:09:32;9.00;8.00;7.33
62547;PMS7003;48602;45.192;5.722;2023-04-08T03:11:57;9.33;9.00;7.67
62547;PMS7003;48602;45.192;5.722;2023-04-08T03:14:23;9.33;9.33;8.00
62547;PMS7003;48602;45.192;5.722;2023-04-08T03:16:48;11.33;9.00;7.00
62547;PMS7003;48602;45.192;5.722;2023-04-08T03:19:13;13.33;12.00;9.67
62547;PMS7003;48602;45.192;5.722;2023-04-08T03:21:39;10.33;9.33;8.33
62547;PMS7003;48602;45.192;5.722;2023-04-08T03:24:04;11.00;9.33;8.00
62547;PMS7003;48602;45.192;5.722;2023-04-08T03:26:30;13.00;11.33;9.00
62547;PMS7003;48602;45.192;5.722;2023-04-08T03:28:55;11.67;9.67;9.00
62547;PMS7003;48602;45.192;5.722;2023-04-08T03:31:21;11.67;9.00;8.00
62547;PMS7003;48602;45.192;5.722;2023-04-08T03:33:46;12.00;12.00;10.00
62547;PMS7003;48602;45.192;5.722;2023-04-08T03:36:12;9.67;9.67;8.00
62547;PMS7003;48602;45.192;5.722;2023-04-08T03:38:37;12.33;11.00;9.00
62547;PMS7003;48602;45.192;5.722;2023-04-08T03:41:02;9.00;9.00;8.00
62547;PMS7003;48602;45.192;5.722;2023-04-08T03:43:28;15.33;13.00;11.67
62547;PMS7003;48602;45.192;5.722;2023-04-08T03:45:54;15.67;14.00;12.00
62547;PMS7003;48602;45.192;5.722;2023-04-08T03:48:20;15.33;13.33;11.33
62547;PMS7003;48602;45.192;5.722;2023-04-08T03:50:46;11.33;11.33;9.00
62547;PMS7003;48602;45.192;5.722;2023-04-08T03:53:12;12.33;11.00;8.00
62547;PMS7003;48602;45.192;5.722;2023-04-08T03:55:37;8.00;8.00;7.33
62547;PMS7003;48602;45.192;5.722;2023-04-08T03:58:03;20.00;20.00;15.33
62547;PMS7003;48602;45.192;5.722;2023-04-08T04:00:28;15.00;15.00;13.00
62547;PMS7003;48602;45.192;5.722;2023-04-08T04:02:54;24.00;23.00;18.67
62547;PMS7003;48602;45.192;5.722;2023-04-08T04:05:20;20.00;19.33;14.00
62547;PMS7003;48602;45.192;5.722;2023-04-08T04:07:46;22.00;20.67;16.33
62547;PMS7003;48602;45.192;5.722;2023-04-08T04:10:11;19.67;17.00;13.00
62547;PMS7003;48602;45.192;5.722;2023-04-08T04:12:36;26.33;20.00;17.00
62547;PMS7003;48602;45.192;5.722;2023-04-08T04:15:02;20.67;18.67;16.67
62547;PMS7003;48602;45.192;5.722;2023-04-08T04:17:28;17.00;16.33;12.33
62547;PMS7003;48602;45.192;5.722;2023-04-08T04:19:53;24.67;20.67;15.33
62547;PMS7003;48602;45.192;5.722;2023-04-08T04:22:19;20.33;14.00;12.00
62547;PMS7003;48602;45.192;5.722;2023-04-08T04:24:47;17.67;16.67;14.00
62547;PMS7003;48602;45.192;5.722;2023-04-08T04:27:14;22.67;20.33;17.00
62547;PMS7003;48602;45.192;5.722;2023-04-08T04:29:41;24.00;20.33;14.00
62547;PMS7003;48602;45.192;5.722;2023-04-08T04:32:07;22.67;22.00;16.67
62547;PMS7003;48602;45.192;5.722;2023-04-08T04:34:32;24.33;18.67;14.00
62547;PMS7003;48602;45.192;5.722;2023-04-08T04:36:58;23.67;22.00;17.33
62547;PMS7003;48602;45.192;5.722;2023-04-08T04:39:23;21.67;20.00;16.00
62547;PMS7003;48602;45.192;5.722;2023-04-08T04:41:48;22.67;18.67;13.67
62547;PMS7003;48602;45.192;5.722;2023-04-08T04:44:14;21.33;18.00;13.00
62547;PMS7003;48602;45.192;5.722;2023-04-08T04:46:40;18.00;16.33;13.33
62547;PMS7003;48602;45.192;5.722;2023-04-08T04:49:05;18.33;16.67;12.67
62547;PMS7003;48602;45.192;5.722;2023-04-08T04:51:31;21.00;19.00;14.33
62547;PMS7003;48602;45.192;5.722;2023-04-08T04:53:57;24.67;21.67;16.00
62547;PMS7003;48602;45.192;5.722;2023-04-08T04:56:22;29.67;23.67;18.67
62547;PMS7003;48602;45.192;5.722;2023-04-08T04:58:49;24.00;21.33;16.33
62547;PMS7003;48602;45.192;5.722;2023-04-08T05:01:14;21.67;18.00;15.33
62547;PMS7003;48602;45.192;5.722;2023-04-08T05:03:40;22.33;19.67;13.00
62547;PMS7003;48602;45.192;5.722;2023-04-08T05:06:05;21.00;19.67;14.00
62547;PMS7003;48602;45.192;5.722;2023-04-08T05:08:30;25.33;22.33;16.33
62547;PMS7003;48602;45.192;5.722;2023-04-08T05:10:56;22.00;18.00;14.67
62547;PMS7003;48602;45.192;5.722;2023-04-08T05:13:23;27.67;21.67;15.00
62547;PMS7003;48602;45.192;5.722;2023-04-08T05:15:49;19.00;18.00;13.67
62547;PMS7003;48602;45.192;5.722;2023-04-08T05:18:14;15.33;15.00;13.00
62547;PMS7003;48602;45.192;5.722;2023-04-08T05:20:40;15.00;13.00;11.00
62547;PMS7003;48602;45.192;5.722;2023-04-08T05:23:05;12.00;11.00;8.00
62547;PMS7003;48602;45.192;5.722;2023-04-08T05:25:31;11.33;11.33;9.00
62547;PMS7003;48602;45.192;5.722;2023-04-08T05:27:57;12.00;9.33;7.00
62547;PMS7003;48602;45.192;5.722;2023-04-08T05:30:22;14.67;14.00;12.00
62547;PMS7003;48602;45.192;5.722;2023-04-08T05:32:48;14.00;12.33;11.00
62547;PMS7003;48602;45.192;5.722;2023-04-08T05:35:13;15.67;12.00;10.67
62547;PMS7003;48602;45.192;5.722;2023-04-08T05:37:38;10.67;10.00;8.67
62547;PMS7003;48602;45.192;5.722;2023-04-08T05:40:04;12.33;9.67;8.00
62547;PMS7003;48602;45.192;5.722;2023-04-08T05:42:30;9.67;8.00;7.33
62547;PMS7003;48602;45.192;5.722;2023-04-08T05:44:56;12.00;10.33;7.33
62547;PMS7003;48602;45.192;5.722;2023-04-08T05:47:22;12.00;11.33;9.00
62547;PMS7003;48602;45.192;5.722;2023-04-08T05:49:47;12.33;11.67;8.67
62547;PMS7003;48602;45.192;5.722;2023-04-08T05:52:12;11.00;8.00;7.00
62547;PMS7003;48602;45.192;5.722;2023-04-08T05:54:41;15.00;14.00;10.33
62547;PMS7003;48602;45.192;5.722;2023-04-08T05:57:07;17.67;13.33;12.33
62547;PMS7003;48602;45.192;5.722;2023-04-08T05:59:32;19.00;17.67;14.00
62547;PMS7003;48602;45.192;5.722;2023-04-08T06:01:58;15.00;12.00;11.00
62547;PMS7003;48602;45.192;5.722;2023-04-08T06:04:23;20.33;15.33;11.00
62547;PMS7003;48602;45.192;5.722;2023-04-08T06:06:48;17.00;14.00;13.00
62547;PMS7003;48602;45.192;5.722;2023-04-08T06:09:14;16.67;15.33;13.00
62547;PMS7003;48602;45.192;5.722;2023-04-08T06:11:39;16.67;13.67;12.00
62547;PMS7003;48602;45.192;5.722;2023-04-08T06:14:05;15.33;15.33;12.00
62547;PMS7003;48602;45.192;5.722;2023-04-08T06:16:30;19.00;14.33;12.00
62547;PMS7003;48602;45.192;5.722;2023-04-08T06:18:55;20.67;19.00;14.00
62547;PMS7003;48602;45.192;5.722;2023-04-08T06:21:21;15.00;14.00;12.33
62547;PMS7003;48602;45.192;5.722;2023-04-08T06:23:46;13.33;12.33;9.00
62547;PMS7003;48602;45.192;5.722;2023-04-08T06:26:12;14.67;10.33;9.00
62547;PMS7003;48602;45.192;5.722;2023-04-08T06:28:37;13.00;13.00;10.67
62547;PMS7003;48602;45.192;5.722;2023-04-08T06:31:02;15.00;13.33;11.33
62547;PMS7003;48602;45.192;5.722;2023-04-08T06:33:28;12.67;12.67;8.67
62547;PMS7003;48602;45.192;5.722;2023-04-08T06:36:00;11.67;10.33;8.67
62547;PMS7003;48602;45.192;5.722;2023-04-08T06:38:29;14.33;14.00;12.00
62547;PMS7003;48602;45.192;5.722;2023-04-08T06:40:56;12.67;10.67;9.00
62547;PMS7003;48602;45.192;5.722;2023-04-08T06:43:25;12.33;9.67;9.00
62547;PMS7003;48602;45.192;5.722;2023-04-08T06:45:51;15.33;13.33;10.00
62547;PMS7003;48602;45.192;5.722;2023-04-08T06:48:17;11.67;11.00;9.00
62547;PMS7003;48602;45.192;5.722;2023-04-08T06:50:42;13.67;12.67;10.00
62547;PMS7003;48602;45.192;5.722;2023-04-08T06:53:08;9.67;8.67;6.67
62547;PMS7003;48602;45.192;5.722;2023-04-08T06:55:33;14.33;13.00;8.67
62547;PMS7003;48602;45.192;5.722;2023-04-08T06:57:58;16.00;12.33;11.33
62547;PMS7003;48602;45.192;5.722;2023-04-08T07:00:26;15.67;13.67;9.67
62547;PMS7003;48602;45.192;5.722;2023-04-08T07:02:51;12.33;10.00;8.33
62547;PMS7003;48602;45.192;5.722;2023-04-08T07:05:16;15.33;13.67;11.33
62547;PMS7003;48602;45.192;5.722;2023-04-08T07:07:42;15.00;15.00;11.67
62547;PMS7003;48602;45.192;5.722;2023-04-08T07:10:07;14.67;10.33;8.33
62547;PMS7003;48602;45.192;5.722;2023-04-08T07:12:33;19.67;15.67;12.33
62547;PMS7003;48602;45.192;5.722;2023-04-08T07:14:59;10.67;10.67;9.00
62547;PMS7003;48602;45.192;5.722;2023-04-08T07:17:24;16.33;16.33;13.67
62547;PMS7003;48602;45.192;5.722;2023-04-08T07:19:50;20.33;18.00;14.67
62547;PMS7003;48602;45.192;5.722;2023-04-08T07:22:16;15.00;15.00;12.00
62547;PMS7003;48602;45.192;5.722;2023-04-08T07:24:42;17.33;16.67;12.67
62547;PMS7003;48602;45.192;5.722;2023-04-08T07:27:09;15.00;9.00;8.00
62547;PMS7003;48602;45.192;5.722;2023-04-08T07:29:35;18.00;17.00;14.33
62547;PMS7003;48602;45.192;5.722;2023-04-08T07:32:00;14.67;14.67;10.67
62547;PMS7003;48602;45.192;5.722;2023-04-08T07:34:25;22.33;20.33;13.67
62547;PMS7003;48602;45.192;5.722;2023-04-08T07:36:51;21.67;17.00;14.00
62547;PMS7003;48602;45.192;5.722;2023-04-08T07:39:16;14.00;12.33;11.00
62547;PMS7003;48602;45.192;5.722;2023-04-08T07:41:41;18.67;15.00;12.00
62547;PMS7003;48602;45.192;5.722;2023-04-08T07:44:07;16.67;16.00;12.00
62547;PMS7003;48602;45.192;5.722;2023-04-08T07:46:35;18.00;13.33;10.00
62547;PMS7003;48602;45.192;5.722;2023-04-08T07:49:01;17.67;14.33;10.67
62547;PMS7003;48602;45.192;5.722;2023-04-08T07:51:26;13.67;11.33;9.33
62547;PMS7003;48602;45.192;5.722;2023-04-08T07:53:52;13.33;13.33;11.67
62547;PMS7003;48602;45.192;5.722;2023-04-08T07:56:17;11.33;10.33;9.00
62547;PMS7003;48602;45.192;5.722;2023-04-08T07:58:43;15.00;15.00;11.00
62547;PMS7003;48602;45.192;5.722;2023-04-08T08:01:21;17.00;13.33;11.00
62547;PMS7003;48602;45.192;5.722;2023-04-08T08:03:47;16.33;16.33;12.00
62547;PMS7003;48602;45.192;5.722;2023-04-08T08:06:13;16.67;14.00;11.00
62547;PMS7003;48602;45.192;5.722;2023-04-08T08:08:39;15.50;13.00;11.00
62547;PMS7003;48602;45.192;5.722;2023-04-08T08:11:05;15.00;13.33;10.00
62547;PMS7003;48602;45.192;5.722;2023-04-08T08:13:30;16.00;14.00;11.00
62547;PMS7003;48602;45.192;5.722;2023-04-08T08:15:55;17.00;12.33;10.00
62547;PMS7003;48602;45.192;5.722;2023-04-08T08:18:21;15.00;14.67;10.00
62547;PMS7003;48602;45.192;5.722;2023-04-08T08:20:46;13.33;11.67;10.00
62547;PMS7003;48602;45.192;5.722;2023-04-08T08:23:12;13.00;12.33;9.67
62547;PMS7003;48602;45.192;5.722;2023-04-08T08:25:37;15.67;12.33;9.67
62547;PMS7003;48602;45.192;5.722;2023-04-08T08:28:02;13.33;12.00;10.00
62547;PMS7003;48602;45.192;5.722;2023-04-08T08:30:28;14.33;12.67;11.33
62547;PMS7003;48602;45.192;5.722;2023-04-08T08:32:53;13.00;12.67;11.00
62547;PMS7003;48602;45.192;5.722;2023-04-08T08:35:20;12.00;12.00;10.33
62547;PMS7003;48602;45.192;5.722;2023-04-08T08:37:45;12.00;12.00;11.00
62547;PMS7003;48602;45.192;5.722;2023-04-08T08:40:12;11.33;11.33;8.67
62547;PMS7003;48602;45.192;5.722;2023-04-08T08:42:38;16.33;16.33;12.33
62547;PMS7003;48602;45.192;5.722;2023-04-08T08:45:04;12.25;12.25;9.75
62547;PMS7003;48602;45.192;5.722;2023-04-08T08:47:31;14.00;10.50;8.25
62547;PMS7003;48602;45.192;5.722;2023-04-08T08:49:56;13.00;12.00;10.00
62547;PMS7003;48602;45.192;5.722;2023-04-08T08:52:22;8.00;8.00;6.00
62547;PMS7003;48602;45.192;5.722;2023-04-08T08:54:47;10.25;8.25;7.00
62547;PMS7003;48602;45.192;5.722;2023-04-08T08:57:16;9.75;7.50;6.25
62547;PMS7003;48602;45.192;5.722;2023-04-08T08:59:44;11.25;10.00;8.25
62547;PMS7003;48602;45.192;5.722;2023-04-08T09:02:27;13.25;13.00;10.00
62547;PMS7003;48602;45.192;5.722;2023-04-08T09:04:59;11.00;11.00;9.50
62547;PMS7003;48602;45.192;5.722;2023-04-08T09:07:28;11.33;5.33;4.00
62547;PMS7003;48602;45.192;5.722;2023-04-08T09:09:55;13.25;11.75;9.25
62547;PMS7003;48602;45.192;5.722;2023-04-08T09:12:22;14.00;13.33;11.00
62547;PMS7003;48602;45.192;5.722;2023-04-08T09:14:49;7.75;7.75;7.00
62547;PMS7003;48602;45.192;5.722;2023-04-08T09:17:15;17.00;14.00;12.00
62547;PMS7003;48602;45.192;5.722;2023-04-08T09:22:54;12.00;12.00;8.75
62547;PMS7003;48602;45.192;5.722;2023-04-08T09:27:56;5.00;5.00;5.00
62547;PMS7003;48602;45.192;5.722;2023-04-08T09:30:25;7.25;7.25;6.00
62547;PMS7003;48602;45.192;5.722;2023-04-08T09:32:55;7.00;6.00;5.00
62547;PMS7003;48602;45.192;5.722;2023-04-08T09:35:21;5.50;4.75;4.25
62547;PMS7003;48602;45.192;5.722;2023-04-08T09:37:48;6.75;6.00;6.00
62547;PMS7003;48602;45.192;5.722;2023-04-08T09:40:15;5.25;5.25;5.00
62547;PMS7003;48602;45.192;5.722;2023-04-08T09:42:45;5.75;5.75;5.00
62547;PMS7003;48602;45.192;5.722;2023-04-08T09:45:17;9.25;7.50;6.00
62547;PMS7003;48602;45.192;5.722;2023-04-08T09:48:30;6.00;6.00;5.00
62547;PMS7003;48602;45.192;5.722;2023-04-08T09:50:42;8.00;7.50;6.75
62547;PMS7003;48602;45.192;5.722;2023-04-08T09:53:18;7.50;7.50;6.25
62547;PMS7003;48602;45.192;5.722;2023-04-08T09:55:47;9.25;9.00;7.00
62547;PMS7003;48602;45.192;5.722;2023-04-08T09:58:32;6.25;6.25;5.50
62547;PMS7003;48602;45.192;5.722;2023-04-08T10:01:03;9.75;8.00;7.00
62547;PMS7003;48602;45.192;5.722;2023-04-08T10:03:36;9.00;8.00;7.00
62547;PMS7003;48602;45.192;5.722;2023-04-08T10:06:04;9.25;8.50;7.00
62547;PMS7003;48602;45.192;5.722;2023-04-08T10:08:32;10.75;8.75;7.25
62547;PMS7003;48602;45.192;5.722;2023-04-08T10:10:59;8.50;7.50;6.00
62547;PMS7003;48602;45.192;5.722;2023-04-08T10:13:24;8.50;8.00;7.00
62547;PMS7003;48602;45.192;5.722;2023-04-08T10:18:54;15.50;12.00;8.50
62547;PMS7003;48602;45.192;5.722;2023-04-08T10:24:09;13.00;10.00;8.25
62547;PMS7003;48602;45.192;5.722;2023-04-08T10:26:42;10.25;8.00;7.00
62547;PMS7003;48602;45.192;5.722;2023-04-08T10:31:44;6.75;5.75;5.00
62547;PMS7003;48602;45.192;5.722;2023-04-08T10:34:20;9.75;9.00;7.50
62547;PMS7003;48602;45.192;5.722;2023-04-08T10:36:48;7.50;7.50;6.50
62547;PMS7003;48602;45.192;5.722;2023-04-08T10:39:14;7.50;7.50;6.00
62547;PMS7003;48602;45.192;5.722;2023-04-08T10:41:48;7.50;6.50;5.75
62547;PMS7003;48602;45.192;5.722;2023-04-08T10:46:46;7.00;7.00;6.25
62547;PMS7003;48602;45.192;5.722;2023-04-08T10:49:13;8.00;7.00;5.75
62547;PMS7003;48602;45.192;5.722;2023-04-08T10:51:39;4.00;4.00;3.75
62547;PMS7003;48602;45.192;5.722;2023-04-08T10:54:12;8.00;8.00;6.00
62547;PMS7003;48602;45.192;5.722;2023-04-08T10:56:48;8.00;6.00;5.00
62547;PMS7003;48602;45.192;5.722;2023-04-08T10:59:16;8.00;8.00;6.50
62547;PMS7003;48602;45.192;5.722;2023-04-08T11:01:51;6.50;6.00;5.75
62547;PMS7003;48602;45.192;5.722;2023-04-08T11:04:17;10.25;10.00;8.75
62547;PMS7003;48602;45.192;5.722;2023-04-08T11:06:43;9.25;9.00;8.00
62547;PMS7003;48602;45.192;5.722;2023-04-08T11:09:11;12.25;9.00;7.75
62547;PMS7003;48602;45.192;5.722;2023-04-08T11:11:37;9.00;8.00;6.00
62547;PMS7003;48602;45.192;5.722;2023-04-08T11:14:02;9.75;8.25;6.50
62547;PMS7003;48602;45.192;5.722;2023-04-08T11:16:29;10.00;7.00;6.25
62547;PMS7003;48602;45.192;5.722;2023-04-08T11:18:56;9.00;8.00;6.50
62547;PMS7003;48602;45.192;5.722;2023-04-08T11:21:22;7.25;7.25;6.00
62547;PMS7003;48602;45.192;5.722;2023-04-08T11:23:49;8.25;7.25;6.75
62547;PMS7003;48602;45.192;5.722;2023-04-08T11:26:16;6.75;6.75;6.00
62547;PMS7003;48602;45.192;5.722;2023-04-08T11:28:43;8.00;8.00;7.25
62547;PMS7003;48602;45.192;5.722;2023-04-08T11:31:09;6.50;5.50;5.00
62547;PMS7003;48602;45.192;5.722;2023-04-08T11:33:36;6.75;6.75;6.75
62547;PMS7003;48602;45.192;5.722;2023-04-08T11:36:02;4.50;4.50;4.00
62547;PMS7003;48602;45.192;5.722;2023-04-08T11:38:28;6.75;6.50;5.50
62547;PMS7003;48602;45.192;5.722;2023-04-08T11:40:57;6.00;6.00;6.00
62547;PMS7003;48602;45.192;5.722;2023-04-08T11:43:24;8.25;8.25;7.50
62547;PMS7003;48602;45.192;5.722;2023-04-08T11:45:50;7.50;6.25;5.75
62547;PMS7003;48602;45.192;5.722;2023-04-08T11:48:16;6.50;6.00;6.00
62547;PMS7003;48602;45.192;5.722;2023-04-08T11:50:42;7.50;7.00;6.25
62547;PMS7003;48602;45.192;5.722;2023-04-08T11:55:44;6.25;6.25;5.50
62547;PMS7003;48602;45.192;5.722;2023-04-08T11:58:10;7.00;6.00;5.00
62547;PMS7003;48602;45.192;5.722;2023-04-08T12:00:35;4.50;4.50;4.00
62547;PMS7003;48602;45.192;5.722;2023-04-08T12:03:01;4.00;4.00;3.00
62547;PMS7003;48602;45.192;5.722;2023-04-08T12:05:27;4.00;4.00;3.25
62547;PMS7003;48602;45.192;5.722;2023-04-08T12:07:52;4.50;4.50;4.00
62547;PMS7003;48602;45.192;5.722;2023-04-08T12:10:17;6.00;6.00;5.00
62547;PMS7003;48602;45.192;5.722;2023-04-08T12:12:43;4.00;4.00;3.50
62547;PMS7003;48602;45.192;5.722;2023-04-08T12:15:09;4.00;4.00;3.25
62547;PMS7003;48602;45.192;5.722;2023-04-08T12:17:35;5.00;4.00;4.00
62547;PMS7003;48602;45.192;5.722;2023-04-08T12:20:02;4.00;4.00;4.00
62547;PMS7003;48602;45.192;5.722;2023-04-08T12:22:28;6.00;6.00;5.00
62547;PMS7003;48602;45.192;5.722;2023-04-08T12:24:54;2.25;2.00;2.00
62547;PMS7003;48602;45.192;5.722;2023-04-08T12:27:19;5.00;5.00;3.75
62547;PMS7003;48602;45.192;5.722;2023-04-08T12:29:45;6.00;5.00;5.00
62547;PMS7003;48602;45.192;5.722;2023-04-08T12:32:10;5.00;4.50;4.25
62547;PMS7003;48602;45.192;5.722;2023-04-08T12:34:36;4.00;4.00;3.20
62547;PMS7003;48602;45.192;5.722;2023-04-08T12:37:02;3.75;3.75;3.00
62547;PMS7003;48602;45.192;5.722;2023-04-08T12:39:27;5.00;5.00;5.00
62547;PMS7003;48602;45.192;5.722;2023-04-08T12:41:52;3.00;3.00;2.00
62547;PMS7003;48602;45.192;5.722;2023-04-08T12:44:18;3.25;3.25;3.00
62547;PMS7003;48602;45.192;5.722;2023-04-08T12:46:43;5.00;5.00;5.00
62547;PMS7003;48602;45.192;5.722;2023-04-08T12:49:10;3.00;3.00;2.50
62547;PMS7003;48602;45.192;5.722;2023-04-08T12:51:36;4.00;4.00;4.00
62547;PMS7003;48602;45.192;5.722;2023-04-08T12:54:02;5.75;5.00;4.75
62547;PMS7003;48602;45.192;5.722;2023-04-08T12:56:28;6.00;6.00;5.75
62547;PMS7003;48602;45.192;5.722;2023-04-08T12:58:53;3.00;3.00;2.00
62547;PMS7003;48602;45.192;5.722;2023-04-08T13:01:20;5.25;3.00;3.00
62547;PMS7003;48602;45.192;5.722;2023-04-08T13:03:46;4.00;4.00;4.00
62547;PMS7003;48602;45.192;5.722;2023-04-08T13:06:11;6.50;6.50;5.75
62547;PMS7003;48602;45.192;5.722;2023-04-08T13:08:37;3.50;3.00;3.00
62547;PMS7003;48602;45.192;5.722;2023-04-08T13:11:02;4.00;4.00;4.00
62547;PMS7003;48602;45.192;5.722;2023-04-08T13:13:28;4.25;4.25;4.25
62547;PMS7003;48602;45.192;5.722;2023-04-08T13:15:54;4.00;3.00;2.75
62547;PMS7003;48602;45.192;5.722;2023-04-08T13:18:20;3.25;2.00;2.00
62547;PMS7003;48602;45.192;5.722;2023-04-08T13:20:46;4.25;4.25;4.25
62547;PMS7003;48602;45.192;5.722;2023-04-08T13:23:11;8.00;7.75;6.50
62547;PMS7003;48602;45.192;5.722;2023-04-08T13:25:39;4.75;4.75;4.25
62547;PMS7003;48602;45.192;5.722;2023-04-08T13:28:04;5.00;4.25;4.00
62547;PMS7003;48602;45.192;5.722;2023-04-08T13:30:30;3.25;3.25;2.75
62547;PMS7003;48602;45.192;5.722;2023-04-08T13:32:55;5.00;3.00;3.00
62547;PMS7003;48602;45.192;5.722;2023-04-08T13:35:20;5.00;5.00;5.00
62547;PMS7003;48602;45.192;5.722;2023-04-08T13:37:46;2.50;2.50;2.50
62547;PMS7003;48602;45.192;5.722;2023-04-08T13:40:11;4.75;4.25;4.00
62547;PMS7003;48602;45.192;5.722;2023-04-08T13:42:37;2.00;2.00;2.00
62547;PMS7003;48602;45.192;5.722;2023-04-08T13:45:03;4.75;4.75;4.00
62547;PMS7003;48602;45.192;5.722;2023-04-08T13:47:28;5.25;4.50;4.00
62547;PMS7003;48602;45.192;5.722;2023-04-08T13:49:55;3.00;3.00;3.00
62547;PMS7003;48602;45.192;5.722;2023-04-08T13:52:20;0.75;0.75;0.75
62547;PMS7003;48602;45.192;5.722;2023-04-08T13:54:45;6.75;3.75;3.50
62547;PMS7003;48602;45.192;5.722;2023-04-08T13:57:11;3.75;3.75;3.50
62547;PMS7003;48602;45.192;5.722;2023-04-08T13:59:36;9.00;7.00;6.00
62547;PMS7003;48602;45.192;5.722;2023-04-08T14:02:02;3.50;3.50;3.50
62547;PMS7003;48602;45.192;5.722;2023-04-08T14:04:27;4.00;3.00;2.75
62547;PMS7003;48602;45.192;5.722;2023-04-08T14:06:53;3.00;2.00;2.00
62547;PMS7003;48602;45.192;5.722;2023-04-08T14:09:19;2.25;2.25;2.00
62547;PMS7003;48602;45.192;5.722;2023-04-08T14:11:44;2.80;2.80;2.40
62547;PMS7003;48602;45.192;5.722;2023-04-08T14:14:10;3.00;3.00;2.75
62547;PMS7003;48602;45.192;5.722;2023-04-08T14:16:36;3.50;3.50;3.50
62547;PMS7003;48602;45.192;5.722;2023-04-08T14:19:02;2.00;2.00;2.00
62547;PMS7003;48602;45.192;5.722;2023-04-08T14:21:28;3.00;3.00;3.00
62547;PMS7003;48602;45.192;5.722;2023-04-08T14:23:55;2.00;2.00;2.00
62547;PMS7003;48602;45.192;5.722;2023-04-08T14:26:21;2.00;2.00;2.00
62547;PMS7003;48602;45.192;5.722;2023-04-08T14:28:46;3.00;3.00;3.00
62547;PMS7003;48602;45.192;5.722;2023-04-08T14:31:12;2.75;2.75;2.50